sensor_id;sensor_type;location;lat;lon;timestamp;P1;durP1;ratioP1;P2;durP2;ratioP2
47812;SDS011;34221;45.296;9.516;2023-05-10T00:00:14;8.90;;;6.82;;
47812;SDS011;34221;45.296;9.516;2023-05-10T00:00:30;9.23;;;6.57;;
47812;SDS011;34221;45.296;9.516;2023-05-10T00:00:45;9.30;;;6.45;;
47812;SDS011;34221;45.296;9.516;2023-05-10T00:01:00;9.05;;;6.47;;
47812;SDS011;34221;45.296;9.516;2023-05-10T00:01:15;8.65;;;6.55;;
47812;SDS011;34221;45.296;9.516;2023-05-10T00:01:29;8.60;;;6.70;;
47812;SDS011;34221;45.296;9.516;2023-05-10T00:01:44;9.80;;;6.87;;
47812;SDS011;34221;45.296;9.516;2023-05-10T00:01:59;10.77;;;7.15;;
47812;SDS011;34221;45.296;9.516;2023-05-10T00:02:14;9.80;;;7.25;;
47812;SDS011;34221;45.296;9.516;2023-05-10T00:02:29;9.77;;;7.03;;
47812;SDS011;34221;45.296;9.516;2023-05-10T00:02:44;10.30;;;7.20;;
47812;SDS011;34221;45.296;9.516;2023-05-10T00:02:58;9.63;;;6.85;;
47812;SDS011;34221;45.296;9.516;2023-05-10T00:03:13;9.70;;;6.78;;
47812;SDS011;34221;45.296;9.516;2023-05-10T00:03:28;10.57;;;6.95;;
47812;SDS011;34221;45.296;9.516;2023-05-10T00:03:43;10.43;;;6.93;;
47812;SDS011;34221;45.296;9.516;2023-05-10T00:03:57;10.13;;;7.50;;
47812;SDS011;34221;45.296;9.516;2023-05-10T00:04:12;9.80;;;7.20;;
47812;SDS011;34221;45.296;9.516;2023-05-10T00:04:27;10.00;;;7.15;;
47812;SDS011;34221;45.296;9.516;2023-05-10T00:04:42;9.90;;;7.30;;
47812;SDS011;34221;45.296;9.516;2023-05-10T00:04:56;9.20;;;6.40;;
47812;SDS011;34221;45.296;9.516;2023-05-10T00:05:11;8.73;;;6.20;;
47812;SDS011;34221;45.296;9.516;2023-05-10T00:05:26;9.13;;;6.85;;
47812;SDS011;34221;45.296;9.516;2023-05-10T00:05:41;9.40;;;6.90;;
47812;SDS011;34221;45.296;9.516;2023-05-10T00:05:55;10.93;;;6.75;;
47812;SDS011;34221;45.296;9.516;2023-05-10T00:06:10;11.15;;;6.70;;
47812;SDS011;34221;45.296;9.516;2023-05-10T00:06:25;9.07;;;6.37;;
47812;SDS011;34221;45.296;9.516;2023-05-10T00:06:40;9.68;;;6.60;;
47812;SDS011;34221;45.296;9.516;2023-05-10T00:06:54;9.73;;;6.93;;
47812;SDS011;34221;45.296;9.516;2023-05-10T00:07:09;9.80;;;7.15;;
47812;SDS011;34221;45.296;9.516;2023-05-10T00:07:24;10.52;;;6.90;;
47812;SDS011;34221;45.296;9.516;2023-05-10T00:07:39;9.85;;;6.28;;
47812;SDS011;34221;45.296;9.516;2023-05-10T00:07:54;9.32;;;6.40;;
47812;SDS011;34221;45.296;9.516;2023-05-10T00:08:09;9.50;;;6.85;;
47812;SDS011;34221;45.296;9.516;2023-05-10T00:08:23;9.52;;;6.97;;
47812;SDS011;34221;45.296;9.516;2023-05-10T00:08:38;10.00;;;7.13;;
47812;SDS011;34221;45.296;9.516;2023-05-10T00:08:53;9.27;;;6.60;;
47812;SDS011;34221;45.296;9.516;2023-05-10T00:09:08;8.63;;;6.43;;
47812;SDS011;34221;45.296;9.516;2023-05-10T00:09:22;8.95;;;6.57;;
47812;SDS011;34221;45.296;9.516;2023-05-10T00:09:37;9.68;;;6.57;;
47812;SDS011;34221;45.296;9.516;2023-05-10T00:09:52;10.27;;;6.60;;
47812;SDS011;34221;45.296;9.516;2023-05-10T00:10:06;9.13;;;6.32;;
47812;SDS011;34221;45.296;9.516;2023-05-10T00:10:21;12.82;;;6.82;;
47812;SDS011;34221;45.296;9.516;2023-05-10T00:10:36;13.52;;;7.03;;
47812;SDS011;34221;45.296;9.516;2023-05-10T00:10:51;8.85;;;6.50;;
47812;SDS011;34221;45.296;9.516;2023-05-10T00:11:07;8.60;;;6.32;;
47812;SDS011;34221;45.296;9.516;2023-05-10T00:11:21;8.87;;;5.90;;
47812;SDS011;34221;45.296;9.516;2023-05-10T00:11:36;8.80;;;5.90;;
47812;SDS011;34221;45.296;9.516;2023-05-10T00:11:51;8.15;;;5.97;;
47812;SDS011;34221;45.296;9.516;2023-05-10T00:12:05;8.65;;;6.28;;
47812;SDS011;34221;45.296;9.516;2023-05-10T00:12:20;9.15;;;6.65;;
47812;SDS011;34221;45.296;9.516;2023-05-10T00:12:35;8.77;;;6.30;;
47812;SDS011;34221;45.296;9.516;2023-05-10T00:12:50;10.10;;;6.30;;
47812;SDS011;34221;45.296;9.516;2023-05-10T00:13:04;10.07;;;6.35;;
47812;SDS011;34221;45.296;9.516;2023-05-10T00:13:38;9.43;;;6.55;;
47812;SDS011;34221;45.296;9.516;2023-05-10T00:13:52;9.03;;;6.80;;
47812;SDS011;34221;45.296;9.516;2023-05-10T00:14:07;7.90;;;6.43;;
47812;SDS011;34221;45.296;9.516;2023-05-10T00:14:22;8.43;;;6.45;;
47812;SDS011;34221;45.296;9.516;2023-05-10T00:14:37;9.35;;;6.95;;
47812;SDS011;34221;45.296;9.516;2023-05-10T00:14:51;8.63;;;7.20;;
47812;SDS011;34221;45.296;9.516;2023-05-10T00:15:06;8.93;;;6.70;;
47812;SDS011;34221;45.296;9.516;2023-05-10T00:15:22;9.43;;;6.63;;
47812;SDS011;34221;45.296;9.516;2023-05-10T00:15:36;9.02;;;6.93;;
47812;SDS011;34221;45.296;9.516;2023-05-10T00:15:51;8.75;;;6.43;;
47812;SDS011;34221;45.296;9.516;2023-05-10T00:16:06;8.70;;;6.17;;
47812;SDS011;34221;45.296;9.516;2023-05-10T00:16:21;8.25;;;6.13;;
47812;SDS011;34221;45.296;9.516;2023-05-10T00:16:35;8.45;;;6.38;;
47812;SDS011;34221;45.296;9.516;2023-05-10T00:16:50;8.73;;;6.70;;
47812;SDS011;34221;45.296;9.516;2023-05-10T00:17:05;9.48;;;7.25;;
47812;SDS011;34221;45.296;9.516;2023-05-10T00:17:20;9.85;;;7.20;;
47812;SDS011;34221;45.296;9.516;2023-05-10T00:17:34;8.70;;;6.53;;
47812;SDS011;34221;45.296;9.516;2023-05-10T00:17:49;9.13;;;6.55;;
47812;SDS011;34221;45.296;9.516;2023-05-10T00:18:04;9.52;;;6.75;;
47812;SDS011;34221;45.296;9.516;2023-05-10T00:18:19;9.70;;;6.95;;
47812;SDS011;34221;45.296;9.516;2023-05-10T00:18:33;9.27;;;6.88;;
47812;SDS011;34221;45.296;9.516;2023-05-10T00:18:48;8.93;;;6.63;;
47812;SDS011;34221;45.296;9.516;2023-05-10T00:19:03;8.88;;;6.40;;
47812;SDS011;34221;45.296;9.516;2023-05-10T00:19:17;8.57;;;6.40;;
47812;SDS011;34221;45.296;9.516;2023-05-10T00:19:32;8.68;;;6.43;;
47812;SDS011;34221;45.296;9.516;2023-05-10T00:19:47;9.15;;;6.53;;
47812;SDS011;34221;45.296;9.516;2023-05-10T00:20:02;10.15;;;6.55;;
47812;SDS011;34221;45.296;9.516;2023-05-10T00:20:19;11.15;;;6.68;;
47812;SDS011;34221;45.296;9.516;2023-05-10T00:20:33;10.30;;;6.93;;
47812;SDS011;34221;45.296;9.516;2023-05-10T00:20:48;9.75;;;6.88;;
47812;SDS011;34221;45.296;9.516;2023-05-10T00:21:03;10.40;;;6.90;;
47812;SDS011;34221;45.296;9.516;2023-05-10T00:21:18;10.52;;;7.15;;
47812;SDS011;34221;45.296;9.516;2023-05-10T00:21:33;10.35;;;7.03;;
47812;SDS011;34221;45.296;9.516;2023-05-10T00:21:48;10.48;;;7.03;;
47812;SDS011;34221;45.296;9.516;2023-05-10T00:22:03;9.07;;;6.50;;
47812;SDS011;34221;45.296;9.516;2023-05-10T00:22:17;8.20;;;6.32;;
47812;SDS011;34221;45.296;9.516;2023-05-10T00:22:33;8.85;;;6.63;;
47812;SDS011;34221;45.296;9.516;2023-05-10T00:22:48;10.68;;;7.03;;
47812;SDS011;34221;45.296;9.516;2023-05-10T00:23:02;10.65;;;7.13;;
47812;SDS011;34221;45.296;9.516;2023-05-10T00:23:17;8.70;;;6.45;;
47812;SDS011;34221;45.296;9.516;2023-05-10T00:23:32;8.38;;;6.40;;
47812;SDS011;34221;45.296;9.516;2023-05-10T00:23:47;8.85;;;6.65;;
47812;SDS011;34221;45.296;9.516;2023-05-10T00:24:02;9.43;;;6.57;;
47812;SDS011;34221;45.296;9.516;2023-05-10T00:24:17;9.57;;;6.55;;
47812;SDS011;34221;45.296;9.516;2023-05-10T00:24:31;10.37;;;6.73;;
47812;SDS011;34221;45.296;9.516;2023-05-10T00:24:46;10.35;;;7.05;;
47812;SDS011;34221;45.296;9.516;2023-05-10T00:25:01;9.23;;;7.15;;
47812;SDS011;34221;45.296;9.516;2023-05-10T00:25:15;9.07;;;6.95;;
47812;SDS011;34221;45.296;9.516;2023-05-10T00:25:30;9.52;;;6.95;;
47812;SDS011;34221;45.296;9.516;2023-05-10T00:25:45;8.85;;;6.57;;
47812;SDS011;34221;45.296;9.516;2023-05-10T00:26:00;8.23;;;6.50;;
47812;SDS011;34221;45.296;9.516;2023-05-10T00:26:14;8.52;;;7.00;;
47812;SDS011;34221;45.296;9.516;2023-05-10T00:26:33;8.55;;;6.70;;
47812;SDS011;34221;45.296;9.516;2023-05-10T00:26:48;10.98;;;6.80;;
47812;SDS011;34221;45.296;9.516;2023-05-10T00:27:03;11.77;;;7.00;;
47812;SDS011;34221;45.296;9.516;2023-05-10T00:27:18;9.05;;;6.45;;
47812;SDS011;34221;45.296;9.516;2023-05-10T00:27:32;8.77;;;6.30;;
47812;SDS011;34221;45.296;9.516;2023-05-10T00:27:47;8.93;;;6.37;;
47812;SDS011;34221;45.296;9.516;2023-05-10T00:28:02;9.07;;;6.72;;
47812;SDS011;34221;45.296;9.516;2023-05-10T00:28:17;9.18;;;7.03;;
47812;SDS011;34221;45.296;9.516;2023-05-10T00:28:32;8.93;;;6.65;;
47812;SDS011;34221;45.296;9.516;2023-05-10T00:28:46;8.98;;;6.35;;
47812;SDS011;34221;45.296;9.516;2023-05-10T00:29:01;9.70;;;6.43;;
47812;SDS011;34221;45.296;9.516;2023-05-10T00:29:16;9.55;;;6.68;;
47812;SDS011;34221;45.296;9.516;2023-05-10T00:29:31;9.20;;;7.03;;
47812;SDS011;34221;45.296;9.516;2023-05-10T00:29:47;10.77;;;7.40;;
47812;SDS011;34221;45.296;9.516;2023-05-10T00:30:01;9.70;;;6.97;;
47812;SDS011;34221;45.296;9.516;2023-05-10T00:30:17;8.63;;;6.80;;
47812;SDS011;34221;45.296;9.516;2023-05-10T00:30:33;9.32;;;6.95;;
47812;SDS011;34221;45.296;9.516;2023-05-10T00:30:49;8.55;;;6.40;;
47812;SDS011;34221;45.296;9.516;2023-05-10T00:31:04;9.13;;;6.38;;
47812;SDS011;34221;45.296;9.516;2023-05-10T00:31:18;9.68;;;6.88;;
47812;SDS011;34221;45.296;9.516;2023-05-10T00:31:33;8.53;;;6.77;;
47812;SDS011;34221;45.296;9.516;2023-05-10T00:31:48;10.02;;;6.82;;
47812;SDS011;34221;45.296;9.516;2023-05-10T00:32:03;10.77;;;7.30;;
47812;SDS011;34221;45.296;9.516;2023-05-10T00:32:18;10.13;;;7.63;;
47812;SDS011;34221;45.296;9.516;2023-05-10T00:32:32;9.73;;;6.88;;
47812;SDS011;34221;45.296;9.516;2023-05-10T00:32:47;10.07;;;6.75;;
47812;SDS011;34221;45.296;9.516;2023-05-10T00:33:03;9.65;;;6.93;;
47812;SDS011;34221;45.296;9.516;2023-05-10T00:33:18;9.05;;;6.90;;
47812;SDS011;34221;45.296;9.516;2023-05-10T00:33:33;10.02;;;7.28;;
47812;SDS011;34221;45.296;9.516;2023-05-10T00:33:47;10.77;;;7.37;;
47812;SDS011;34221;45.296;9.516;2023-05-10T00:34:02;10.57;;;6.82;;
47812;SDS011;34221;45.296;9.516;2023-05-10T00:34:17;9.32;;;6.43;;
47812;SDS011;34221;45.296;9.516;2023-05-10T00:34:32;8.50;;;6.66;;
47812;SDS011;34221;45.296;9.516;2023-05-10T00:34:47;8.73;;;6.70;;
47812;SDS011;34221;45.296;9.516;2023-05-10T00:35:02;10.43;;;7.20;;
47812;SDS011;34221;45.296;9.516;2023-05-10T00:35:17;10.85;;;7.60;;
47812;SDS011;34221;45.296;9.516;2023-05-10T00:35:31;10.73;;;7.30;;
47812;SDS011;34221;45.296;9.516;2023-05-10T00:35:46;10.95;;;7.00;;
47812;SDS011;34221;45.296;9.516;2023-05-10T00:36:01;9.63;;;6.83;;
47812;SDS011;34221;45.296;9.516;2023-05-10T00:36:16;10.45;;;7.40;;
47812;SDS011;34221;45.296;9.516;2023-05-10T00:36:30;11.05;;;7.80;;
47812;SDS011;34221;45.296;9.516;2023-05-10T00:36:45;13.32;;;7.85;;
47812;SDS011;34221;45.296;9.516;2023-05-10T00:37:00;14.05;;;7.75;;
47812;SDS011;34221;45.296;9.516;2023-05-10T00:37:15;10.57;;;7.55;;
47812;SDS011;34221;45.296;9.516;2023-05-10T00:37:30;10.75;;;7.60;;
47812;SDS011;34221;45.296;9.516;2023-05-10T00:37:45;11.85;;;7.43;;
47812;SDS011;34221;45.296;9.516;2023-05-10T00:37:59;10.52;;;6.88;;
47812;SDS011;34221;45.296;9.516;2023-05-10T00:38:14;9.18;;;6.68;;
47812;SDS011;34221;45.296;9.516;2023-05-10T00:38:29;10.43;;;7.30;;
47812;SDS011;34221;45.296;9.516;2023-05-10T00:38:44;10.15;;;7.13;;
47812;SDS011;34221;45.296;9.516;2023-05-10T00:38:59;9.23;;;6.57;;
47812;SDS011;34221;45.296;9.516;2023-05-10T00:39:14;9.65;;;6.63;;
47812;SDS011;34221;45.296;9.516;2023-05-10T00:39:29;9.90;;;7.18;;
47812;SDS011;34221;45.296;9.516;2023-05-10T00:39:44;10.40;;;7.33;;
47812;SDS011;34221;45.296;9.516;2023-05-10T00:39:59;9.75;;;7.15;;
47812;SDS011;34221;45.296;9.516;2023-05-10T00:40:14;9.68;;;7.40;;
47812;SDS011;34221;45.296;9.516;2023-05-10T00:40:32;9.30;;;7.25;;
47812;SDS011;34221;45.296;9.516;2023-05-10T00:40:52;10.13;;;7.50;;
47812;SDS011;34221;45.296;9.516;2023-05-10T00:41:14;10.43;;;7.30;;
47812;SDS011;34221;45.296;9.516;2023-05-10T00:41:29;10.65;;;7.32;;
47812;SDS011;34221;45.296;9.516;2023-05-10T00:41:48;9.68;;;7.18;;
47812;SDS011;34221;45.296;9.516;2023-05-10T00:42:04;10.52;;;7.68;;
47812;SDS011;34221;45.296;9.516;2023-05-10T00:42:19;9.88;;;7.75;;
47812;SDS011;34221;45.296;9.516;2023-05-10T00:42:34;10.17;;;7.53;;
47812;SDS011;34221;45.296;9.516;2023-05-10T00:42:48;10.55;;;7.20;;
47812;SDS011;34221;45.296;9.516;2023-05-10T00:43:03;11.35;;;7.63;;
47812;SDS011;34221;45.296;9.516;2023-05-10T00:43:19;10.57;;;7.57;;
47812;SDS011;34221;45.296;9.516;2023-05-10T00:43:35;10.15;;;7.50;;
47812;SDS011;34221;45.296;9.516;2023-05-10T00:43:51;10.35;;;7.63;;
47812;SDS011;34221;45.296;9.516;2023-05-10T00:44:06;10.48;;;7.45;;
47812;SDS011;34221;45.296;9.516;2023-05-10T00:44:21;9.73;;;7.43;;
47812;SDS011;34221;45.296;9.516;2023-05-10T00:44:36;9.30;;;6.78;;
47812;SDS011;34221;45.296;9.516;2023-05-10T00:44:51;9.82;;;6.93;;
47812;SDS011;34221;45.296;9.516;2023-05-10T00:45:06;9.43;;;7.35;;
47812;SDS011;34221;45.296;9.516;2023-05-10T00:45:21;10.25;;;7.63;;
47812;SDS011;34221;45.296;9.516;2023-05-10T00:45:36;10.95;;;7.63;;
47812;SDS011;34221;45.296;9.516;2023-05-10T00:45:53;10.77;;;7.28;;
47812;SDS011;34221;45.296;9.516;2023-05-10T00:46:08;9.93;;;7.45;;
47812;SDS011;34221;45.296;9.516;2023-05-10T00:46:23;9.13;;;7.20;;
47812;SDS011;34221;45.296;9.516;2023-05-10T00:46:38;9.23;;;7.07;;
47812;SDS011;34221;45.296;9.516;2023-05-10T00:46:53;9.23;;;7.07;;
47812;SDS011;34221;45.296;9.516;2023-05-10T00:47:08;10.00;;;7.75;;
47812;SDS011;34221;45.296;9.516;2023-05-10T00:47:24;10.80;;;7.75;;
47812;SDS011;34221;45.296;9.516;2023-05-10T00:47:39;10.70;;;7.78;;
47812;SDS011;34221;45.296;9.516;2023-05-10T00:47:54;9.95;;;7.95;;
47812;SDS011;34221;45.296;9.516;2023-05-10T00:48:10;9.93;;;7.43;;
47812;SDS011;34221;45.296;9.516;2023-05-10T00:48:25;9.88;;;7.07;;
47812;SDS011;34221;45.296;9.516;2023-05-10T00:48:40;9.13;;;7.07;;
47812;SDS011;34221;45.296;9.516;2023-05-10T00:48:55;9.65;;;7.43;;
47812;SDS011;34221;45.296;9.516;2023-05-10T00:49:10;10.18;;;7.05;;
47812;SDS011;34221;45.296;9.516;2023-05-10T00:49:25;10.18;;;7.00;;
47812;SDS011;34221;45.296;9.516;2023-05-10T00:49:40;9.38;;;6.95;;
47812;SDS011;34221;45.296;9.516;2023-05-10T00:49:55;8.27;;;6.72;;
47812;SDS011;34221;45.296;9.516;2023-05-10T00:50:10;9.55;;;7.47;;
47812;SDS011;34221;45.296;9.516;2023-05-10T00:50:25;10.65;;;7.60;;
47812;SDS011;34221;45.296;9.516;2023-05-10T00:50:40;10.48;;;7.05;;
47812;SDS011;34221;45.296;9.516;2023-05-10T00:50:55;10.05;;;7.20;;
47812;SDS011;34221;45.296;9.516;2023-05-10T00:51:10;9.15;;;7.13;;
47812;SDS011;34221;45.296;9.516;2023-05-10T00:51:24;9.52;;;7.10;;
47812;SDS011;34221;45.296;9.516;2023-05-10T00:51:40;10.18;;;7.30;;
47812;SDS011;34221;45.296;9.516;2023-05-10T00:51:56;9.15;;;6.90;;
47812;SDS011;34221;45.296;9.516;2023-05-10T00:52:12;9.15;;;6.90;;
47812;SDS011;34221;45.296;9.516;2023-05-10T00:52:28;9.73;;;7.15;;
47812;SDS011;34221;45.296;9.516;2023-05-10T00:52:43;9.38;;;6.93;;
47812;SDS011;34221;45.296;9.516;2023-05-10T00:52:59;9.68;;;7.15;;
47812;SDS011;34221;45.296;9.516;2023-05-10T00:53:14;9.82;;;7.30;;
47812;SDS011;34221;45.296;9.516;2023-05-10T00:53:31;8.75;;;6.38;;
47812;SDS011;34221;45.296;9.516;2023-05-10T00:53:46;9.70;;;6.82;;
47812;SDS011;34221;45.296;9.516;2023-05-10T00:54:03;11.07;;;7.35;;
47812;SDS011;34221;45.296;9.516;2023-05-10T00:54:19;10.35;;;6.90;;
47812;SDS011;34221;45.296;9.516;2023-05-10T00:54:37;8.43;;;6.75;;
47812;SDS011;34221;45.296;9.516;2023-05-10T00:54:52;9.25;;;6.82;;
47812;SDS011;34221;45.296;9.516;2023-05-10T00:55:07;10.25;;;6.85;;
47812;SDS011;34221;45.296;9.516;2023-05-10T00:55:23;9.45;;;6.85;;
47812;SDS011;34221;45.296;9.516;2023-05-10T00:55:38;10.00;;;7.00;;
47812;SDS011;34221;45.296;9.516;2023-05-10T00:55:53;10.15;;;6.78;;
47812;SDS011;34221;45.296;9.516;2023-05-10T00:56:08;8.75;;;6.30;;
47812;SDS011;34221;45.296;9.516;2023-05-10T00:56:23;8.38;;;6.38;;
47812;SDS011;34221;45.296;9.516;2023-05-10T00:56:40;8.93;;;6.63;;
47812;SDS011;34221;45.296;9.516;2023-05-10T00:56:55;9.00;;;6.85;;
47812;SDS011;34221;45.296;9.516;2023-05-10T00:57:11;9.23;;;7.03;;
47812;SDS011;34221;45.296;9.516;2023-05-10T00:57:25;9.25;;;6.57;;
47812;SDS011;34221;45.296;9.516;2023-05-10T00:57:40;10.68;;;7.28;;
47812;SDS011;34221;45.296;9.516;2023-05-10T00:57:56;10.75;;;7.85;;
47812;SDS011;34221;45.296;9.516;2023-05-10T00:58:11;9.90;;;7.20;;
47812;SDS011;34221;45.296;9.516;2023-05-10T00:58:27;9.23;;;6.67;;
47812;SDS011;34221;45.296;9.516;2023-05-10T00:58:42;8.18;;;6.72;;
47812;SDS011;34221;45.296;9.516;2023-05-10T00:58:57;8.82;;;7.07;;
47812;SDS011;34221;45.296;9.516;2023-05-10T00:59:12;9.00;;;6.40;;
47812;SDS011;34221;45.296;9.516;2023-05-10T00:59:27;9.20;;;6.53;;
47812;SDS011;34221;45.296;9.516;2023-05-10T00:59:42;9.32;;;7.63;;
47812;SDS011;34221;45.296;9.516;2023-05-10T00:59:57;10.32;;;7.10;;
47812;SDS011;34221;45.296;9.516;2023-05-10T01:00:13;9.88;;;6.20;;
47812;SDS011;34221;45.296;9.516;2023-05-10T01:00:32;10.90;;;6.78;;
47812;SDS011;34221;45.296;9.516;2023-05-10T01:00:47;12.95;;;7.22;;
47812;SDS011;34221;45.296;9.516;2023-05-10T01:01:04;9.57;;;6.63;;
47812;SDS011;34221;45.296;9.516;2023-05-10T01:01:20;10.27;;;6.57;;
47812;SDS011;34221;45.296;9.516;2023-05-10T01:01:35;10.73;;;6.88;;
47812;SDS011;34221;45.296;9.516;2023-05-10T01:01:50;10.20;;;7.13;;
47812;SDS011;34221;45.296;9.516;2023-05-10T01:02:06;9.40;;;7.05;;
47812;SDS011;34221;45.296;9.516;2023-05-10T01:02:21;9.13;;;6.95;;
47812;SDS011;34221;45.296;9.516;2023-05-10T01:02:35;9.75;;;6.88;;
47812;SDS011;34221;45.296;9.516;2023-05-10T01:02:50;8.70;;;6.13;;
47812;SDS011;34221;45.296;9.516;2023-05-10T01:03:06;8.00;;;6.03;;
47812;SDS011;34221;45.296;9.516;2023-05-10T01:03:21;9.57;;;6.88;;
47812;SDS011;34221;45.296;9.516;2023-05-10T01:03:36;9.95;;;6.97;;
47812;SDS011;34221;45.296;9.516;2023-05-10T01:03:51;9.23;;;6.68;;
47812;SDS011;34221;45.296;9.516;2023-05-10T01:04:25;8.60;;;6.70;;
47812;SDS011;34221;45.296;9.516;2023-05-10T01:04:39;8.05;;;6.20;;
47812;SDS011;34221;45.296;9.516;2023-05-10T01:04:54;8.73;;;6.32;;
47812;SDS011;34221;45.296;9.516;2023-05-10T01:05:09;9.55;;;6.95;;
47812;SDS011;34221;45.296;9.516;2023-05-10T01:05:24;10.07;;;7.20;;
47812;SDS011;34221;45.296;9.516;2023-05-10T01:05:39;9.85;;;6.97;;
47812;SDS011;34221;45.296;9.516;2023-05-10T01:05:54;9.05;;;6.53;;
47812;SDS011;34221;45.296;9.516;2023-05-10T01:06:09;10.82;;;6.88;;
47812;SDS011;34221;45.296;9.516;2023-05-10T01:06:25;10.80;;;7.40;;
47812;SDS011;34221;45.296;9.516;2023-05-10T01:06:43;9.80;;;7.03;;
47812;SDS011;34221;45.296;9.516;2023-05-10T01:06:58;9.77;;;6.90;;
47812;SDS011;34221;45.296;9.516;2023-05-10T01:07:13;9.48;;;6.97;;
47812;SDS011;34221;45.296;9.516;2023-05-10T01:07:28;8.88;;;6.63;;
47812;SDS011;34221;45.296;9.516;2023-05-10T01:07:43;9.13;;;6.45;;
47812;SDS011;34221;45.296;9.516;2023-05-10T01:07:57;9.23;;;6.53;;
47812;SDS011;34221;45.296;9.516;2023-05-10T01:08:12;9.18;;;6.85;;
47812;SDS011;34221;45.296;9.516;2023-05-10T01:08:27;8.98;;;6.53;;
47812;SDS011;34221;45.296;9.516;2023-05-10T01:08:43;8.60;;;6.03;;
47812;SDS011;34221;45.296;9.516;2023-05-10T01:08:59;8.43;;;6.28;;
47812;SDS011;34221;45.296;9.516;2023-05-10T01:09:14;8.60;;;6.18;;
47812;SDS011;34221;45.296;9.516;2023-05-10T01:09:29;9.65;;;6.05;;
47812;SDS011;34221;45.296;9.516;2023-05-10T01:09:44;9.45;;;6.40;;
47812;SDS011;34221;45.296;9.516;2023-05-10T01:09:59;11.57;;;6.85;;
47812;SDS011;34221;45.296;9.516;2023-05-10T01:10:14;11.23;;;6.88;;
47812;SDS011;34221;45.296;9.516;2023-05-10T01:10:30;7.88;;;6.18;;
47812;SDS011;34221;45.296;9.516;2023-05-10T01:10:45;9.32;;;6.60;;
47812;SDS011;34221;45.296;9.516;2023-05-10T01:11:00;9.70;;;6.90;;
47812;SDS011;34221;45.296;9.516;2023-05-10T01:11:16;8.80;;;6.65;;
47812;SDS011;34221;45.296;9.516;2023-05-10T01:11:31;8.95;;;6.85;;
47812;SDS011;34221;45.296;9.516;2023-05-10T01:11:46;10.50;;;7.03;;
47812;SDS011;34221;45.296;9.516;2023-05-10T01:12:01;10.23;;;6.90;;
47812;SDS011;34221;45.296;9.516;2023-05-10T01:12:17;8.32;;;6.25;;
47812;SDS011;34221;45.296;9.516;2023-05-10T01:12:33;7.65;;;5.82;;
47812;SDS011;34221;45.296;9.516;2023-05-10T01:12:50;9.02;;;6.55;;
47812;SDS011;34221;45.296;9.516;2023-05-10T01:13:06;9.32;;;6.40;;
47812;SDS011;34221;45.296;9.516;2023-05-10T01:13:33;8.50;;;6.27;;
47812;SDS011;34221;45.296;9.516;2023-05-10T01:13:55;9.10;;;6.53;;
47812;SDS011;34221;45.296;9.516;2023-05-10T01:14:10;9.18;;;6.70;;
47812;SDS011;34221;45.296;9.516;2023-05-10T01:14:25;9.70;;;6.63;;
47812;SDS011;34221;45.296;9.516;2023-05-10T01:14:40;10.05;;;6.80;;
47812;SDS011;34221;45.296;9.516;2023-05-10T01:14:55;10.38;;;7.13;;
47812;SDS011;34221;45.296;9.516;2023-05-10T01:15:11;10.82;;;7.40;;
47812;SDS011;34221;45.296;9.516;2023-05-10T01:15:27;9.52;;;6.63;;
47812;SDS011;34221;45.296;9.516;2023-05-10T01:15:43;7.80;;;5.88;;
47812;SDS011;34221;45.296;9.516;2023-05-10T01:15:59;8.07;;;5.95;;
47812;SDS011;34221;45.296;9.516;2023-05-10T01:16:16;8.32;;;6.40;;
47812;SDS011;34221;45.296;9.516;2023-05-10T01:16:32;9.60;;;6.97;;
47812;SDS011;34221;45.296;9.516;2023-05-10T01:16:50;10.23;;;7.22;;
47812;SDS011;34221;45.296;9.516;2023-05-10T01:17:06;8.82;;;6.72;;
47812;SDS011;34221;45.296;9.516;2023-05-10T01:17:23;9.30;;;6.93;;
47812;SDS011;34221;45.296;9.516;2023-05-10T01:17:39;9.90;;;7.32;;
47812;SDS011;34221;45.296;9.516;2023-05-10T01:17:56;9.57;;;7.10;;
47812;SDS011;34221;45.296;9.516;2023-05-10T01:18:11;9.20;;;6.90;;
47812;SDS011;34221;45.296;9.516;2023-05-10T01:18:26;9.15;;;7.03;;
47812;SDS011;34221;45.296;9.516;2023-05-10T01:18:42;9.95;;;7.30;;
47812;SDS011;34221;45.296;9.516;2023-05-10T01:18:58;10.02;;;7.15;;
47812;SDS011;34221;45.296;9.516;2023-05-10T01:19:21;10.10;;;7.07;;
47812;SDS011;34221;45.296;9.516;2023-05-10T01:19:38;9.55;;;6.55;;
47812;SDS011;34221;45.296;9.516;2023-05-10T01:19:53;8.63;;;6.40;;
47812;SDS011;34221;45.296;9.516;2023-05-10T01:20:08;9.32;;;6.72;;
47812;SDS011;34221;45.296;9.516;2023-05-10T01:20:25;9.05;;;6.55;;
47812;SDS011;34221;45.296;9.516;2023-05-10T01:20:46;8.32;;;6.25;;
47812;SDS011;34221;45.296;9.516;2023-05-10T01:21:21;9.98;;;6.97;;
47812;SDS011;34221;45.296;9.516;2023-05-10T01:21:43;8.88;;;6.72;;
47812;SDS011;34221;45.296;9.516;2023-05-10T01:22:11;9.70;;;6.93;;
47812;SDS011;34221;45.296;9.516;2023-05-10T01:24:36;8.05;;;6.50;;
47812;SDS011;34221;45.296;9.516;2023-05-10T01:26:19;8.60;;;6.85;;
47812;SDS011;34221;45.296;9.516;2023-05-10T01:27:22;10.55;;;7.38;;
47812;SDS011;34221;45.296;9.516;2023-05-10T01:29:47;12.07;;;7.70;;
47812;SDS011;34221;45.296;9.516;2023-05-10T01:32:35;10.05;;;7.45;;
47812;SDS011;34221;45.296;9.516;2023-05-10T01:33:00;12.80;;;8.60;;
47812;SDS011;34221;45.296;9.516;2023-05-10T01:33:58;11.30;;;8.23;;
47812;SDS011;34221;45.296;9.516;2023-05-10T01:34:16;10.13;;;7.43;;
47812;SDS011;34221;45.296;9.516;2023-05-10T01:34:40;11.25;;;8.35;;
47812;SDS011;34221;45.296;9.516;2023-05-10T01:37:25;11.88;;;8.10;;
47812;SDS011;34221;45.296;9.516;2023-05-10T01:37:54;12.93;;;8.57;;
47812;SDS011;34221;45.296;9.516;2023-05-10T01:38:58;12.68;;;9.00;;
47812;SDS011;34221;45.296;9.516;2023-05-10T01:39:37;12.88;;;9.18;;
47812;SDS011;34221;45.296;9.516;2023-05-10T01:40:05;13.57;;;9.25;;
47812;SDS011;34221;45.296;9.516;2023-05-10T01:41:25;11.27;;;8.48;;
47812;SDS011;34221;45.296;9.516;2023-05-10T01:42:25;10.90;;;8.95;;
47812;SDS011;34221;45.296;9.516;2023-05-10T01:42:46;13.48;;;9.25;;
47812;SDS011;34221;45.296;9.516;2023-05-10T01:43:08;12.73;;;9.45;;
47812;SDS011;34221;45.296;9.516;2023-05-10T01:43:57;12.90;;;9.20;;
47812;SDS011;34221;45.296;9.516;2023-05-10T01:44:45;11.57;;;9.18;;
47812;SDS011;34221;45.296;9.516;2023-05-10T01:45:10;13.15;;;9.60;;
47812;SDS011;34221;45.296;9.516;2023-05-10T01:45:37;14.73;;;9.80;;
47812;SDS011;34221;45.296;9.516;2023-05-10T01:46:02;13.43;;;9.88;;
47812;SDS011;34221;45.296;9.516;2023-05-10T01:46:27;12.57;;;9.93;;
47812;SDS011;34221;45.296;9.516;2023-05-10T01:46:53;16.38;;;10.43;;
47812;SDS011;34221;45.296;9.516;2023-05-10T01:47:30;12.15;;;9.05;;
47812;SDS011;34221;45.296;9.516;2023-05-10T01:47:54;13.90;;;10.60;;
47812;SDS011;34221;45.296;9.516;2023-05-10T01:48:21;11.73;;;9.30;;
47812;SDS011;34221;45.296;9.516;2023-05-10T01:48:40;13.63;;;9.48;;
47812;SDS011;34221;45.296;9.516;2023-05-10T01:49:00;13.45;;;10.20;;
47812;SDS011;34221;45.296;9.516;2023-05-10T01:49:25;14.68;;;10.48;;
47812;SDS011;34221;45.296;9.516;2023-05-10T01:49:44;15.07;;;9.57;;
47812;SDS011;34221;45.296;9.516;2023-05-10T01:50:12;12.93;;;9.55;;
47812;SDS011;34221;45.296;9.516;2023-05-10T01:50:32;12.93;;;9.63;;
47812;SDS011;34221;45.296;9.516;2023-05-10T01:50:49;13.65;;;10.02;;
47812;SDS011;34221;45.296;9.516;2023-05-10T01:51:06;13.38;;;10.10;;
47812;SDS011;34221;45.296;9.516;2023-05-10T01:51:25;12.73;;;10.13;;
47812;SDS011;34221;45.296;9.516;2023-05-10T01:51:46;14.48;;;10.68;;
47812;SDS011;34221;45.296;9.516;2023-05-10T01:52:08;15.10;;;10.07;;
47812;SDS011;34221;45.296;9.516;2023-05-10T01:52:26;15.07;;;10.48;;
47812;SDS011;34221;45.296;9.516;2023-05-10T01:52:47;14.88;;;11.43;;
47812;SDS011;34221;45.296;9.516;2023-05-10T01:53:08;13.18;;;10.27;;
47812;SDS011;34221;45.296;9.516;2023-05-10T01:53:25;14.02;;;10.85;;